Time;durP1;ratioP1;P1;durP2;ratioP2;P2;SDS_P1;SDS_P2;PMS_P1;PMS_P2;Temp;Humidity;BMP_temperature;BMP_pressure;BME280_temperature;BME280_humidity;BME280_pressure;Samples;Min_cycle;Max_cycle;Signal;HPM_P1;HPM_P2
2023/11/07 00:14:21;;;;;;;2.67;1.07;;;8.40;99.90;;;;;;5036413;28;20057;-79
2023/11/07 00:16:57;;;;;;;2.87;1.13;;;8.30;99.90;;;;;;5038288;28;20014;-79
2023/11/07 00:19:25;;;;;;;5.57;0.87;;;8.40;99.90;;;;;;5034480;28;21171;-79
2023/11/07 00:21:57;;;;;;;3.17;0.57;;;8.40;99.90;;;;;;5031180;28;20014;-80
2023/11/07 00:24:28;;;;;;;2.60;0.70;;;8.40;99.90;;;;;;5032664;28;20014;-79
2023/11/07 00:29:34;;;;;;;3.03;1.13;;;8.30;99.90;;;;;;5074425;22;20045;-79
2023/11/07 00:32:02;;;;;;;4.80;0.97;;;8.20;99.90;;;;;;5035315;28;20085;-80
2023/11/07 00:34:30;;;;;;;2.80;0.83;;;8.20;99.90;;;;;;5045344;28;20026;-80
2023/11/07 00:36:58;;;;;;;5.93;1.10;;;8.30;99.90;;;;;;5038814;28;20033;-79
2023/11/07 00:39:28;;;;;;;6.23;1.17;;;8.10;99.90;;;;;;5038073;28;20068;-80
2023/11/07 00:41:56;;;;;;;2.80;0.77;;;8.10;99.90;;;;;;5035585;28;20044;-79
2023/11/07 00:44:24;;;;;;;4.13;0.90;;;8.10;99.90;;;;;;5034441;28;20091;-80
2023/11/07 00:46:50;;;;;;;2.90;1.00;;;8.20;99.90;;;;;;5035425;28;20037;-80
2023/11/07 00:49:18;;;;;;;5.70;0.90;;;8.10;99.90;;;;;;5037321;28;20022;-79
2023/11/07 00:51:48;;;;;;;2.30;0.50;;;8.00;99.90;;;;;;5038468;28;20021;-79
2023/11/07 00:54:16;;;;;;;2.40;0.93;;;8.00;99.90;;;;;;5036117;28;20025;-79
2023/11/07 00:56:44;;;;;;;4.73;0.90;;;8.00;99.90;;;;;;5036731;28;20026;-79
2023/11/07 00:59:13;;;;;;;1.63;0.87;;;8.00;99.90;;;;;;5039065;28;20030;-79
2023/11/07 01:01:41;;;;;;;2.13;0.60;;;8.00;99.90;;;;;;5040227;28;20017;-79
2023/11/07 01:04:06;;;;;;;1.30;0.50;;;7.90;99.90;;;;;;5036625;28;20022;-79
2023/11/07 01:06:34;;;;;;;3.37;0.50;;;8.00;99.90;;;;;;5049667;28;20052;-79
2023/11/07 01:09:00;;;;;;;4.40;0.90;;;7.90;99.90;;;;;;5036268;28;20022;-80
2023/11/07 01:11:28;;;;;;;3.70;0.60;;;7.90;99.90;;;;;;5037752;28;20048;-80
2023/11/07 01:14:03;;;;;;;2.70;0.80;;;7.90;99.90;;;;;;5038620;28;20038;-79
2023/11/07 01:16:31;;;;;;;3.03;0.93;;;7.80;99.90;;;;;;5037797;28;20086;-80
2023/11/07 01:18:59;;;;;;;1.07;0.77;;;7.90;99.90;;;;;;5038395;28;20038;-79
2023/11/07 01:21:33;;;;;;;1.83;0.60;;;7.90;99.90;;;;;;5040015;28;20034;-79
2023/11/07 01:24:00;;;;;;;4.40;1.00;;;7.70;99.90;;;;;;5050067;28;20025;-80
2023/11/07 01:26:28;;;;;;;1.73;0.93;;;7.80;99.90;;;;;;5037489;28;20026;-79
2023/11/07 01:28:59;;;;;;;2.67;1.10;;;7.70;99.90;;;;;;5039043;28;20125;-80
2023/11/07 01:31:24;;;;;;;3.37;0.87;;;7.70;99.90;;;;;;5038850;28;20030;-79
2023/11/07 01:33:56;;;;;;;3.03;1.37;;;7.60;99.90;;;;;;5038272;28;20014;-80
2023/11/07 01:36:21;;;;;;;4.33;1.00;;;7.60;99.90;;;;;;5039217;28;20026;-79
2023/11/07 01:38:49;;;;;;;4.40;0.83;;;7.60;99.90;;;;;;5037219;28;20038;-79
2023/11/07 01:41:25;;;;;;;;;;;;;;;;;;;;;
2023/11/07 01:43:58;;;;;;;3.17;1.10;;;7.50;99.90;;;;;;5038921;28;20049;-79
2023/11/07 01:46:30;;;;;;;1.90;0.60;;;7.50;99.90;;;;;;5037447;28;20030;-79
2023/11/07 01:48:56;;;;;;;2.10;0.73;;;7.40;99.90;;;;;;5035137;28;20033;-79
2023/11/07 01:51:23;;;;;;;1.73;0.80;;;7.40;99.90;;;;;;5055232;28;20032;-80
2023/11/07 01:53:52;;;;;;;4.03;0.60;;;7.40;99.90;;;;;;5039143;28;20081;-79
2023/11/07 01:56:18;;;;;;;5.43;0.80;;;7.40;99.90;;;;;;5036650;28;20037;-79
2023/11/07 01:58:50;;;;;;;1.87;1.03;;;7.30;99.90;;;;;;5037742;28;20045;-79
2023/11/07 02:01:16;;;;;;;3.17;0.82;;;7.40;99.90;;;;;;5037542;28;20034;-80
2023/11/07 02:03:44;;;;;;;2.43;0.80;;;7.30;99.90;;;;;;5036530;28;20108;-79
2023/11/07 02:06:14;;;;;;;7.03;1.23;;;7.30;99.90;;;;;;5038622;28;20072;-79
2023/11/07 02:08:42;;;;;;;3.70;0.97;;;7.40;99.90;;;;;;5036884;28;20034;-80
2023/11/07 02:11:08;;;;;;;6.33;0.80;;;7.30;99.90;;;;;;5051107;28;20020;-80
2023/11/07 02:13:34;;;;;;;4.63;1.03;;;7.30;99.90;;;;;;5039233;28;20097;-79
2023/11/07 02:16:02;;;;;;;2.50;0.80;;;7.40;99.90;;;;;;5039001;28;20049;-79
2023/11/07 02:18:33;;;;;;;4.40;1.10;;;7.30;99.90;;;;;;5037987;28;20078;-80
2023/11/07 02:20:58;;;;;;;3.27;1.10;;;7.30;99.90;;;;;;5036445;28;20024;-80
2023/11/07 02:23:34;;;;;;;4.40;0.90;;;7.40;99.90;;;;;;5054411;28;20038;-79
2023/11/07 02:26:04;;;;;;;8.97;1.37;;;7.40;99.90;;;;;;5040729;28;20022;-79
2023/11/07 02:28:33;;;;;;;4.53;0.80;;;7.30;99.90;;;;;;5041708;28;20030;-79
2023/11/07 02:31:11;;;;;;;;;;;;;;;;;;;;;
2023/11/07 02:33:41;;;;;;;3.60;0.87;;;7.40;99.90;;;;;;5043164;28;20157;-79
2023/11/07 02:36:07;;;;;;;2.47;0.90;;;7.30;99.90;;;;;;5039725;28;20034;-78
2023/11/07 02:38:33;;;;;;;2.00;0.90;;;7.30;99.90;;;;;;5040075;28;20029;-80
2023/11/07 02:41:01;;;;;;;4.53;1.10;;;7.30;99.90;;;;;;5040417;28;20014;-79
2023/11/07 02:43:27;;;;;;;2.40;0.77;;;7.30;99.90;;;;;;5039844;28;20013;-79
2023/11/07 02:45:53;;;;;;;3.40;1.03;;;7.30;99.90;;;;;;5040827;28;20029;-80
2023/11/07 02:48:21;;;;;;;2.27;1.10;;;7.30;99.90;;;;;;5041531;28;20026;-79
2023/11/07 02:50:50;;;;;;;6.17;1.00;;;7.20;99.90;;;;;;5041911;28;20053;-80
2023/11/07 02:53:16;;;;;;;4.30;1.20;;;7.10;99.90;;;;;;5037129;28;20034;-80
2023/11/07 02:55:42;;;;;;;5.43;0.90;;;7.10;99.90;;;;;;5040050;28;20013;-79
2023/11/07 02:58:13;;;;;;;4.17;1.03;;;7.10;99.90;;;;;;5041094;28;20029;-79
2023/11/07 03:00:42;;;;;;;3.57;1.13;;;7.10;99.90;;;;;;5040719;28;20042;-80
2023/11/07 03:03:10;;;;;;;3.80;1.37;;;7.10;99.90;;;;;;5039647;28;20006;-80
2023/11/07 03:05:37;;;;;;;5.97;1.50;;;7.00;99.90;;;;;;5038856;28;20026;-79
2023/11/07 03:08:09;;;;;;;2.73;1.00;;;7.00;99.90;;;;;;5041712;28;20027;-79
2023/11/07 03:10:37;;;;;;;7.30;1.47;;;6.90;99.90;;;;;;5039177;28;20086;-78
2023/11/07 03:13:12;;;;;;;5.53;1.73;;;7.00;99.90;;;;;;5038701;28;20025;-79
2023/11/07 03:15:40;;;;;;;4.27;1.40;;;6.90;99.90;;;;;;5033210;28;20029;-80
2023/11/07 03:18:08;;;;;;;5.20;1.43;;;6.90;99.90;;;;;;5042221;28;20013;-79
2023/11/07 03:20:38;;;;;;;5.70;1.50;;;6.90;99.90;;;;;;5039711;28;20114;-79
2023/11/07 03:23:06;;;;;;;2.13;1.00;;;6.90;99.90;;;;;;5038390;28;20054;-79
2023/11/07 03:25:32;;;;;;;5.30;1.00;;;6.90;99.90;;;;;;5039396;28;20009;-81
2023/11/07 03:28:00;;;;;;;4.53;1.23;;;6.90;99.90;;;;;;5042615;28;20040;-79
2023/11/07 03:30:26;;;;;;;2.23;1.20;;;6.90;99.90;;;;;;5045120;28;20018;-81
2023/11/07 03:32:57;;;;;;;3.80;1.43;;;6.90;99.90;;;;;;5040464;28;20203;-79
2023/11/07 03:35:30;;;;;;;3.53;1.50;;;6.80;99.90;;;;;;5042135;28;20021;-78
2023/11/07 03:38:03;;;;;;;6.33;1.60;;;6.90;99.90;;;;;;5038862;28;20022;-80
2023/11/07 03:40:31;;;;;;;5.77;1.50;;;6.80;99.90;;;;;;5038800;28;20093;-78
2023/11/07 03:42:57;;;;;;;3.57;1.20;;;6.80;99.90;;;;;;5049853;28;20023;-80
2023/11/07 03:45:27;;;;;;;4.30;1.33;;;6.70;99.90;;;;;;5040207;28;20030;-78
2023/11/07 03:47:55;;;;;;;5.27;1.57;;;6.70;99.90;;;;;;5057994;28;20041;-79
2023/11/07 03:50:22;;;;;;;5.10;1.23;;;6.80;99.90;;;;;;5047565;28;20102;-79
2023/11/07 03:52:48;;;;;;;3.13;1.30;;;6.70;99.90;;;;;;5039904;28;20054;-79
2023/11/07 03:55:22;;;;;;;3.27;1.67;;;6.80;99.90;;;;;;5039205;28;20223;-80
2023/11/07 03:57:52;;;;;;;3.70;1.30;;;6.80;99.90;;;;;;5039418;28;20029;-79
2023/11/07 04:00:21;;;;;;;9.20;2.27;;;6.80;99.90;;;;;;5036892;28;20114;-79
2023/11/07 04:02:48;;;;;;;5.93;1.53;;;6.80;99.90;;;;;;5041083;28;20021;-80
2023/11/07 04:05:20;;;;;;;6.03;1.53;;;6.80;99.90;;;;;;5038281;28;20033;-79
2023/11/07 04:07:55;;;;;;;4.93;1.23;;;6.80;99.90;;;;;;5057086;28;20010;-79
2023/11/07 04:10:24;;;;;;;2.57;1.00;;;6.80;99.90;;;;;;5046400;28;20093;-79
2023/11/07 04:12:53;;;;;;;4.17;1.70;;;6.80;99.90;;;;;;5038131;28;20017;-79
2023/11/07 04:15:41;;;;;;;4.00;1.90;;;6.80;99.90;;;;;;5037076;28;21194;-80
2023/11/07 04:18:14;;;;;;;6.97;1.40;;;6.90;99.90;;;;;;5039920;28;20021;-80
2023/11/07 04:20:46;;;;;;;15.40;1.70;;;6.90;99.90;;;;;;5040983;28;20033;-80
2023/11/07 04:23:16;;;;;;;3.45;1.17;;;6.90;99.90;;;;;;5037693;28;20057;-79
2023/11/07 04:25:47;;;;;;;7.33;1.50;;;6.80;99.90;;;;;;5037734;28;20014;-79
2023/11/07 04:28:16;;;;;;;6.60;1.87;;;6.90;99.90;;;;;;5038945;28;20037;-79
2023/11/07 04:30:44;;;;;;;4.13;1.83;;;6.90;99.90;;;;;;5037461;28;20030;-79
2023/11/07 04:33:12;;;;;;;5.97;1.53;;;6.80;99.90;;;;;;5038194;28;20022;-79
2023/11/07 04:35:39;;;;;;;6.53;1.73;;;7.00;99.90;;;;;;5037893;28;20034;-79
2023/11/07 04:38:07;;;;;;;3.73;1.23;;;6.90;99.90;;;;;;5037788;28;20025;-78
2023/11/07 04:40:36;;;;;;;4.67;1.93;;;6.90;99.90;;;;;;5037389;28;20062;-81
2023/11/07 04:43:02;;;;;;;3.37;1.27;;;6.80;99.90;;;;;;5049464;28;20037;-80
2023/11/07 04:45:31;;;;;;;5.33;1.40;;;6.90;99.90;;;;;;5037141;28;20018;-80
2023/11/07 04:48:02;;;;;;;3.63;1.23;;;6.90;99.90;;;;;;5034936;28;20022;-79
2023/11/07 04:50:37;;;;;;;4.50;1.55;;;6.80;99.90;;;;;;5027824;28;20094;-78
2023/11/07 04:53:07;;;;;;;3.23;1.50;;;6.90;99.90;;;;;;5038323;28;20033;-79
2023/11/07 04:55:33;;;;;;;5.23;1.57;;;6.90;99.90;;;;;;5037747;28;20029;-79
2023/11/07 04:58:01;;;;;;;4.43;1.47;;;7.00;99.90;;;;;;5037085;28;20022;-80
2023/11/07 05:00:26;;;;;;;4.97;1.57;;;7.00;99.90;;;;;;5037386;28;20017;-79
2023/11/07 05:02:55;;;;;;;7.07;1.40;;;7.00;99.90;;;;;;5037569;28;20048;-79
2023/11/07 05:05:33;;;;;;;5.40;1.23;;;7.00;99.90;;;;;;5037282;28;20081;-79
2023/11/07 05:08:01;;;;;;;5.80;1.43;;;7.00;99.90;;;;;;5037369;28;20045;-79
2023/11/07 05:10:29;;;;;;;3.90;1.43;;;7.00;99.90;;;;;;5036996;28;20010;-79
2023/11/07 05:12:58;;;;;;;7.40;1.70;;;6.90;99.90;;;;;;5037263;28;20014;-79
2023/11/07 05:15:26;;;;;;;6.03;1.67;;;7.00;99.90;;;;;;5037018;28;20053;-80
2023/11/07 05:17:54;;;;;;;2.80;1.00;;;7.00;99.90;;;;;;5037497;28;20022;-78
2023/11/07 05:20:22;;;;;;;3.47;1.20;;;7.10;99.90;;;;;;5037098;28;20018;-79
2023/11/07 05:22:48;;;;;;;3.63;1.40;;;7.10;99.90;;;;;;5037138;28;20093;-79
2023/11/07 05:25:13;;;;;;;5.30;1.53;;;7.10;99.90;;;;;;5037295;28;20034;-80
2023/11/07 05:27:40;;;;;;;10.03;1.90;;;7.10;99.90;;;;;;5037038;28;20034;-79
2023/11/07 05:30:07;;;;;;;5.20;1.53;;;7.10;99.90;;;;;;5030743;28;20099;-79
2023/11/07 05:32:33;;;;;;;5.13;1.53;;;7.10;99.90;;;;;;5051864;28;20026;-80
2023/11/07 05:35:02;;;;;;;20.23;3.07;;;7.20;99.90;;;;;;5034084;28;20022;-79
2023/11/07 05:37:42;;;;;;;;;;;;;;;;;;;;;
2023/11/07 05:40:15;;;;;;;12.70;1.87;;;7.10;99.90;;;;;;5034461;28;20086;-79
2023/11/07 05:42:42;;;;;;;5.67;1.43;;;7.20;99.90;;;;;;5036810;28;20034;-80
2023/11/07 05:45:08;;;;;;;4.53;1.40;;;7.10;99.90;;;;;;5036988;28;20102;-80
2023/11/07 05:47:40;;;;;;;5.07;1.37;;;7.10;99.90;;;;;;5037078;28;20093;-80
2023/11/07 05:50:06;;;;;;;27.43;1.73;;;7.10;99.90;;;;;;5036842;28;20010;-79
2023/11/07 05:52:36;;;;;;;5.13;1.53;;;7.20;99.90;;;;;;5037553;28;20014;-79
2023/11/07 05:55:06;;;;;;;8.87;1.50;;;7.10;99.90;;;;;;5036211;28;20007;-80
2023/11/07 05:57:36;;;;;;;2.90;1.00;;;7.20;99.90;;;;;;5040812;28;20018;-81
2023/11/07 06:00:30;;;;;;;2.23;1.00;;;7.20;99.90;;;;;;5039577;28;20034;-78
2023/11/07 06:02:55;;;;;;;1.83;0.80;;;7.40;99.90;;;;;;5041136;28;20022;-79
2023/11/07 06:05:34;;;;;;;2.73;0.80;;;7.50;99.90;;;;;;5040517;28;20028;-79
2023/11/07 06:08:05;;;;;;;5.40;1.37;;;7.60;99.90;;;;;;5040796;28;20032;-80
2023/11/07 06:10:32;;;;;;;1.93;0.97;;;7.60;99.90;;;;;;5040599;28;20052;-79
2023/11/07 06:13:04;;;;;;;3.00;0.80;;;7.70;99.90;;;;;;5041234;28;20029;-81
2023/11/07 06:15:32;;;;;;;2.53;0.73;;;7.80;99.90;;;;;;5041917;28;20025;-80
2023/11/07 06:18:03;;;;;;;1.80;0.70;;;7.80;99.90;;;;;;5040295;28;20010;-79
2023/11/07 06:20:31;;;;;;;1.20;0.67;;;7.90;99.90;;;;;;5043259;28;20038;-79
2023/11/07 06:22:58;;;;;;;1.50;0.93;;;7.90;99.90;;;;;;5037342;28;20018;-80
2023/11/07 06:25:25;;;;;;;6.73;1.23;;;8.00;99.90;;;;;;5047960;28;20029;-79
2023/11/07 06:27:53;;;;;;;2.67;1.00;;;7.90;99.90;;;;;;5042564;28;20025;-79
2023/11/07 06:30:21;;;;;;;4.70;1.07;;;8.00;99.90;;;;;;5048358;28;20108;-79
2023/11/07 06:32:49;;;;;;;5.70;1.00;;;8.00;99.90;;;;;;5041472;28;20014;-79
2023/11/07 06:35:17;;;;;;;2.63;1.00;;;8.00;99.90;;;;;;5044109;28;20040;-79
2023/11/07 06:37:46;;;;;;;2.27;1.10;;;8.10;99.90;;;;;;5041127;28;20022;-79
2023/11/07 06:40:16;;;;;;;2.57;1.20;;;8.00;99.90;;;;;;5041794;28;20068;-80
2023/11/07 06:42:52;;;;;;;5.43;0.97;;;8.10;99.90;;;;;;5041517;28;20999;-79
2023/11/07 06:45:18;;;;;;;4.10;0.70;;;8.10;99.90;;;;;;5047322;28;20036;-79
2023/11/07 06:47:45;;;;;;;0.87;0.63;;;8.10;99.90;;;;;;5052709;28;20058;-80
2023/11/07 06:50:15;;;;;;;1.87;0.70;;;8.20;99.90;;;;;;5041464;28;20052;-80
2023/11/07 06:52:48;;;;;;;1.53;0.70;;;8.30;99.90;;;;;;5041247;28;20021;-79
2023/11/07 06:55:15;;;;;;;1.58;0.73;;;8.30;99.90;;;;;;5042352;28;20052;-80
2023/11/07 06:57:46;;;;;;;3.43;0.70;;;8.40;99.90;;;;;;5041859;28;20037;-79
2023/11/07 07:00:18;;;;;;;6.97;0.70;;;8.40;99.90;;;;;;5041309;28;20030;-80
2023/11/07 07:02:49;;;;;;;3.97;0.83;;;8.50;99.90;;;;;;5039043;28;20022;-79
2023/11/07 07:05:37;;;;;;;3.77;1.00;;;8.50;99.90;;;;;;5041286;28;20018;-80
2023/11/07 07:08:03;;;;;;;4.20;1.07;;;8.50;99.90;;;;;;5040198;28;20033;-80
2023/11/07 07:10:38;;;;;;;8.67;1.60;;;8.50;99.90;;;;;;5041285;28;20053;-80
2023/11/07 07:13:03;;;;;;;3.47;1.03;;;8.50;99.90;;;;;;5040473;28;20026;-79
2023/11/07 07:15:41;;;;;;;4.47;1.13;;;8.60;99.90;;;;;;5041192;28;20070;-79
2023/11/07 07:18:18;;;;;;;2.97;0.93;;;8.60;99.90;;;;;;5039469;28;20014;-80
2023/11/07 07:20:54;;;;;;;1.57;0.97;;;8.60;99.90;;;;;;5041125;28;20054;-79
2023/11/07 07:23:24;;;;;;;3.00;1.10;;;8.60;99.90;;;;;;5053278;28;20032;-80
2023/11/07 07:25:56;;;;;;;7.10;1.30;;;8.60;99.90;;;;;;5040406;28;20022;-80
2023/11/07 07:28:25;;;;;;;4.25;1.45;;;8.60;99.90;;;;;;5037479;28;20034;-79
2023/11/07 07:30:51;;;;;;;6.90;1.47;;;8.60;99.90;;;;;;5057053;28;20029;-79
2023/11/07 07:33:27;;;;;;;2.77;0.93;;;8.60;99.90;;;;;;5041033;28;20034;-80
2023/11/07 07:36:02;;;;;;;4.30;1.37;;;8.60;99.90;;;;;;5038637;28;20014;-79
2023/11/07 07:38:36;;;;;;;1.83;0.80;;;8.60;99.90;;;;;;5040761;28;20053;-79
2023/11/07 07:41:13;;;;;;;3.10;0.70;;;8.60;99.90;;;;;;5053824;28;20033;-79
2023/11/07 07:43:38;;;;;;;1.03;0.70;;;8.60;99.90;;;;;;5040709;28;20026;-79
2023/11/07 07:46:15;;;;;;;1.73;0.57;;;8.70;99.90;;;;;;5040380;28;20065;-78
2023/11/07 07:48:42;;;;;;;3.23;0.83;;;8.60;99.90;;;;;;5055550;28;20635;-79
2023/11/07 07:51:14;;;;;;;2.23;0.47;;;8.70;99.90;;;;;;5041967;28;20038;-78
2023/11/07 07:53:43;;;;;;;1.02;0.30;;;8.70;99.90;;;;;;5050513;28;20029;-78
2023/11/07 07:56:13;;;;;;;2.70;0.40;;;8.60;99.90;;;;;;5038927;28;20033;-78
2023/11/07 07:58:41;;;;;;;2.67;0.63;;;8.80;99.90;;;;;;5039165;28;20025;-77
2023/11/07 08:01:09;;;;;;;2.13;0.93;;;8.90;99.90;;;;;;5039326;28;20053;-77
2023/11/07 08:03:41;;;;;;;1.33;0.70;;;8.80;99.90;;;;;;5049300;28;20041;-78
2023/11/07 08:06:22;;;;;;;0.87;0.30;;;8.90;99.90;;;;;;5040638;28;20085;-79
2023/11/07 08:08:48;;;;;;;1.40;0.60;;;9.00;99.90;;;;;;5041015;28;20041;-78
2023/11/07 08:11:31;;;;;;;6.00;0.70;;;8.90;99.90;;;;;;5040579;28;20052;-79
2023/11/07 08:14:00;;;;;;;1.43;0.50;;;8.90;99.90;;;;;;5039484;28;20014;-78
2023/11/07 08:16:39;;;;;;;2.00;0.50;;;9.00;99.90;;;;;;5039600;28;20013;-79
2023/11/07 08:19:13;;;;;;;1.33;0.60;;;9.10;99.90;;;;;;5040479;28;20037;-80
2023/11/07 08:21:42;;;;;;;1.40;0.50;;;9.00;99.90;;;;;;5038561;28;20049;-80
2023/11/07 08:24:12;;;;;;;3.33;0.67;;;9.20;99.90;;;;;;5040124;28;20013;-80
2023/11/07 08:26:42;;;;;;;1.00;0.57;;;9.10;99.90;;;;;;5040006;28;20025;-79
2023/11/07 08:29:16;;;;;;;2.53;0.40;;;9.00;99.90;;;;;;5049980;28;20022;-79
2023/11/07 08:31:44;;;;;;;2.10;0.23;;;9.10;99.90;;;;;;5056898;28;20036;-78
2023/11/07 08:34:12;;;;;;;2.20;0.67;;;9.20;99.90;;;;;;5039317;28;20013;-78
2023/11/07 08:36:42;;;;;;;4.20;0.70;;;9.20;99.90;;;;;;5038707;28;20029;-79
2023/11/07 08:39:27;;;;;;;3.00;0.90;;;9.30;99.90;;;;;;5039390;28;20030;-80
2023/11/07 08:41:55;;;;;;;2.30;0.60;;;9.30;99.90;;;;;;5055978;28;20033;-81
2023/11/07 08:44:24;;;;;;;2.83;0.43;;;9.30;99.90;;;;;;5047865;28;20014;-78
2023/11/07 08:46:50;;;;;;;0.83;0.37;;;9.30;99.90;;;;;;5054964;28;20082;-80
2023/11/07 08:49:32;;;;;;;2.30;0.70;;;9.30;99.90;;;;;;5039915;28;20206;-79
2023/11/07 08:52:00;;;;;;;1.80;0.90;;;9.30;99.90;;;;;;5037779;28;20025;-80
2023/11/07 08:54:29;;;;;;;3.20;0.30;;;9.20;99.90;;;;;;5036238;28;20014;-81
2023/11/07 08:56:57;;;;;;;5.73;0.30;;;9.40;99.90;;;;;;5037419;28;20424;-80
2023/11/07 08:59:23;;;;;;;1.73;0.40;;;9.40;99.90;;;;;;5044138;28;20086;-79
2023/11/07 09:01:58;;;;;;;5.63;0.93;;;9.50;99.90;;;;;;5036902;28;20142;-79
2023/11/07 09:04:27;;;;;;;1.13;0.33;;;9.60;99.90;;;;;;5039834;28;20026;-78
2023/11/07 09:06:52;;;;;;;1.20;0.30;;;9.60;99.90;;;;;;5041654;28;20022;-80
2023/11/07 09:09:20;;;;;;;6.97;0.80;;;9.70;99.90;;;;;;5038126;28;20017;-79
2023/11/07 09:11:55;;;;;;;1.57;0.40;;;9.70;99.90;;;;;;5037672;28;20042;-79
2023/11/07 09:14:32;;;;;;;5.10;0.53;;;9.90;99.90;;;;;;5036986;28;20030;-79
2023/11/07 09:17:06;;;;;;;5.10;0.53;;;10.00;99.90;;;;;;5038360;28;20030;-78
2023/11/07 09:19:32;;;;;;;2.27;0.60;;;10.00;99.90;;;;;;5036586;28;20041;-79
2023/11/07 09:22:07;;;;;;;3.03;0.70;;;10.10;99.90;;;;;;5036350;28;20014;-78
2023/11/07 09:24:35;;;;;;;1.53;0.40;;;10.20;99.90;;;;;;5036944;28;20034;-81
2023/11/07 09:27:07;;;;;;;1.03;0.50;;;10.20;99.90;;;;;;5037715;28;20047;-79
2023/11/07 09:29:37;;;;;;;0.98;0.32;;;10.30;99.90;;;;;;5035648;28;20034;-79
2023/11/07 09:32:05;;;;;;;2.87;0.33;;;10.30;99.90;;;;;;5050969;28;20033;-79
2023/11/07 09:34:31;;;;;;;2.07;0.50;;;10.50;99.90;;;;;;5042294;28;20065;-81
2023/11/07 09:37:02;;;;;;;1.23;0.50;;;10.60;99.90;;;;;;5036968;28;20022;-79
2023/11/07 09:39:28;;;;;;;0.83;0.50;;;10.70;99.90;;;;;;5035498;28;20025;-79
2023/11/07 09:41:53;;;;;;;1.50;0.80;;;10.70;99.90;;;;;;5037784;28;20053;-79
2023/11/07 09:44:27;;;;;;;1.77;0.53;;;10.80;99.90;;;;;;5039015;28;20052;-79
2023/11/07 09:46:55;;;;;;;2.53;0.50;;;10.90;99.90;;;;;;5038030;28;20063;-80
2023/11/07 09:49:24;;;;;;;2.37;0.60;;;10.90;99.90;;;;;;5038372;28;20030;-80
2023/11/07 09:51:52;;;;;;;3.43;0.43;;;11.00;99.90;;;;;;5038073;28;20033;-80
2023/11/07 09:54:24;;;;;;;1.23;0.40;;;11.00;99.90;;;;;;5035753;28;20030;-78
2023/11/07 09:57:02;;;;;;;2.55;0.47;;;11.10;99.90;;;;;;5044869;28;20037;-79
2023/11/07 09:59:54;;;;;;;;;;;;;;;;;;;;;
2023/11/07 10:02:40;;;;;;;1.43;0.77;;;11.20;99.90;;;;;;5038275;28;20042;-80
2023/11/07 10:05:07;;;;;;;2.70;0.50;;;11.30;99.90;;;;;;5053469;28;20068;-79
2023/11/07 10:07:36;;;;;;;0.93;0.40;;;11.30;99.90;;;;;;5036986;28;20029;-78
2023/11/07 10:10:05;;;;;;;2.10;0.30;;;11.40;99.90;;;;;;5044528;28;20044;-80
2023/11/07 10:12:38;;;;;;;3.47;0.97;;;11.40;99.90;;;;;;5039141;28;20045;-79
2023/11/07 10:15:38;;;;;;;;;;;;;;;;;;;;;
2023/11/07 10:18:08;;;;;;;4.17;0.87;;;11.50;99.90;;;;;;5037297;28;20061;-79
2023/11/07 10:20:50;;;;;;;3.13;0.90;;;11.50;99.90;;;;;;5036424;28;20065;-79
2023/11/07 10:23:24;;;;;;;3.53;0.90;;;11.50;99.90;;;;;;5052217;28;20030;-79
2023/11/07 10:25:56;;;;;;;3.00;0.47;;;11.40;99.90;;;;;;5040052;28;20022;-79
2023/11/07 10:28:24;;;;;;;2.77;0.53;;;11.30;99.90;;;;;;5036262;28;20021;-79
2023/11/07 10:30:56;;;;;;;4.57;0.60;;;11.20;99.90;;;;;;5034723;28;20046;-78
2023/11/07 10:33:35;;;;;;;1.63;0.45;;;11.20;99.90;;;;;;5035309;28;20040;-78
2023/11/07 10:36:02;;;;;;;2.67;0.80;;;11.20;99.90;;;;;;5039654;28;20030;-78
2023/11/07 10:38:38;;;;;;;4.80;0.80;;;11.10;99.90;;;;;;5046485;28;20018;-81
2023/11/07 10:41:27;;;;;;;3.87;0.70;;;11.20;99.90;;;;;;5036123;28;20041;-79
2023/11/07 10:44:23;;;;;;;2.07;0.50;;;11.20;99.90;;;;;;5039751;28;20040;-80
2023/11/07 10:46:50;;;;;;;1.63;0.30;;;11.30;99.90;;;;;;5040029;28;20030;-79
2023/11/07 10:49:16;;;;;;;2.73;0.43;;;11.30;99.90;;;;;;5041106;28;20006;-79
2023/11/07 10:51:50;;;;;;;1.93;0.67;;;11.30;99.90;;;;;;5040263;28;20046;-83
2023/11/07 10:54:32;;;;;;;3.80;0.80;;;11.40;99.90;;;;;;5040476;28;20037;-79
2023/11/07 10:57:10;;;;;;;1.43;0.57;;;11.30;99.90;;;;;;5040905;28;20025;-80
2023/11/07 10:59:45;;;;;;;2.97;0.43;;;11.40;99.90;;;;;;5040447;28;20093;-78
2023/11/07 11:02:15;;;;;;;2.47;0.43;;;11.40;99.90;;;;;;5039571;28;20074;-79
2023/11/07 11:04:42;;;;;;;11.23;0.93;;;11.50;99.90;;;;;;5040288;28;20014;-80
2023/11/07 11:07:10;;;;;;;5.13;0.93;;;11.50;99.90;;;;;;5040332;28;20006;-78
2023/11/07 11:09:42;;;;;;;4.10;0.63;;;11.60;99.90;;;;;;5109720;22;20112;-80
2023/11/07 11:50:53;;;;;;;4.83;0.80;;;12.20;99.90;;;;;;6171037;22;20238;31
2023/11/07 11:53:34;;;;;;;3.80;0.70;;;12.20;99.90;;;;;;4977133;28;20056;-78
2023/11/07 11:55:59;;;;;;;1.00;0.40;;;12.30;99.90;;;;;;4963122;28;20024;-82
2023/11/07 11:58:31;;;;;;;5.77;1.23;;;12.30;99.90;;;;;;4959902;29;20020;-78
2023/11/07 12:01:00;;;;;;;4.00;0.77;;;12.30;99.90;;;;;;4973562;28;20028;-78
2023/11/07 12:03:35;;;;;;;3.10;0.43;;;12.20;99.90;;;;;;4974704;28;20030;-81
2023/11/07 12:06:04;;;;;;;1.77;0.60;;;12.30;99.90;;;;;;4966144;28;20048;-80
2023/11/07 12:08:42;;;;;;;3.57;0.70;;;12.40;99.90;;;;;;4975685;28;20043;-79
2023/11/07 12:11:09;;;;;;;2.80;0.40;;;12.40;99.90;;;;;;4973234;28;20036;-79
2023/11/07 12:13:40;;;;;;;4.53;0.47;;;12.40;99.90;;;;;;4978172;28;20008;-77
2023/11/07 12:16:16;;;;;;;5.60;0.50;;;12.30;99.90;;;;;;4967882;28;20051;-78
2023/11/07 12:18:47;;;;;;;2.77;0.57;;;12.20;99.90;;;;;;4969780;28;20099;-78
2023/11/07 12:21:26;;;;;;;1.40;0.20;;;12.20;99.90;;;;;;4971903;28;20182;-78
2023/11/07 12:24:01;;;;;;;1.10;0.30;;;12.10;99.90;;;;;;4971885;28;20039;-78
2023/11/07 12:26:40;;;;;;;2.67;0.60;;;12.10;99.90;;;;;;4955907;29;20099;-77
2023/11/07 12:29:08;;;;;;;1.50;0.37;;;12.10;99.90;;;;;;4970895;28;20026;-77
2023/11/07 12:31:37;;;;;;;3.77;0.90;;;12.00;99.90;;;;;;4955790;29;20020;-77
2023/11/07 12:34:03;;;;;;;1.73;0.50;;;12.00;99.90;;;;;;4955397;29;20027;-79
2023/11/07 12:36:35;;;;;;;1.63;0.27;;;11.80;99.90;;;;;;4971223;28;20036;-79
2023/11/07 12:39:05;;;;;;;3.17;0.40;;;11.50;99.90;;;;;;4970631;28;20028;-77
2023/11/07 12:41:32;;;;;;;1.43;0.37;;;11.30;99.90;;;;;;4970822;28;20055;-77
2023/11/07 12:44:13;;;;;;;1.80;0.40;;;11.10;99.90;;;;;;4970641;28;20035;-77
2023/11/07 12:46:41;;;;;;;3.07;0.40;;;11.20;99.90;;;;;;4971250;28;20095;-78
2023/11/07 12:49:14;;;;;;;1.23;0.50;;;11.30;99.90;;;;;;4955073;28;20011;-78
2023/11/07 12:51:40;;;;;;;3.87;0.83;;;11.40;99.90;;;;;;4956204;29;20046;-78
2023/11/07 12:54:12;;;;;;;2.80;0.40;;;11.50;99.90;;;;;;4954870;29;20020;-78
2023/11/07 12:56:42;;;;;;;;;;;11.60;99.90;;;;;;4970899;28;20020;-78
2023/11/07 12:59:17;;;;;;;4.07;0.33;;;11.90;99.90;;;;;;4970693;28;19942;-78
2023/11/07 13:01:49;;;;;;;1.10;0.50;;;11.90;99.90;;;;;;4953492;28;20017;-79
2023/11/07 13:04:19;;;;;;;1.38;0.60;;;11.90;99.90;;;;;;4954724;28;20063;-78
2023/11/07 13:06:55;;;;;;;2.93;0.53;;;12.10;99.90;;;;;;4969009;28;20023;-78
2023/11/07 13:09:28;;;;;;;0.87;0.30;;;12.30;99.90;;;;;;4966972;28;20044;-78
2023/11/07 13:12:15;;;;;;;4.30;0.47;;;13.00;99.90;;;;;;4970629;28;20012;-77
2023/11/07 13:14:51;;;;;;;2.90;0.50;;;13.40;99.90;;;;;;4953829;28;20020;-78
2023/11/07 13:17:17;;;;;;;3.63;0.80;;;13.10;99.90;;;;;;4970910;28;20083;-78
2023/11/07 13:19:47;;;;;;;2.40;0.70;;;13.00;99.90;;;;;;4954992;28;20126;-78
2023/11/07 13:22:17;;;;;;;2.80;0.40;;;13.00;99.90;;;;;;4954466;28;20028;-77
2023/11/07 13:24:47;;;;;;;2.97;0.57;;;12.70;99.90;;;;;;4971015;28;20075;-77
2023/11/07 13:27:21;;;;;;;1.13;0.30;;;13.60;99.90;;;;;;4953281;28;20074;-77
2023/11/07 13:29:48;;;;;;;2.13;0.38;;;15.00;99.90;;;;;;4953178;28;20027;-77
2023/11/07 13:32:16;;;;;;;4.47;0.52;;;16.20;99.90;;;;;;4951991;29;20039;-78
2023/11/07 13:34:42;;;;;;;1.83;0.30;;;17.20;99.90;;;;;;4953762;28;20016;-78
2023/11/07 13:37:09;;;;;;;4.40;0.50;;;17.60;99.90;;;;;;4952163;28;20043;-78
2023/11/07 13:39:35;;;;;;;1.05;0.28;;;18.00;99.90;;;;;;4951396;28;20620;-78
2023/11/07 13:42:08;;;;;;;3.78;0.57;;;18.10;99.90;;;;;;4950561;28;20028;-78
2023/11/07 13:44:34;;;;;;;1.10;0.30;;;16.80;99.90;;;;;;4951405;28;20027;-77
2023/11/07 13:47:10;;;;;;;2.33;0.50;;;15.60;99.90;;;;;;4952072;28;20062;-76
2023/11/07 13:49:35;;;;;;;4.15;0.57;;;14.70;99.90;;;;;;4951632;28;20103;-76
2023/11/07 13:52:08;;;;;;;4.47;0.60;;;14.00;99.90;;;;;;4952835;28;20024;-78
2023/11/07 13:54:38;;;;;;;1.70;0.40;;;13.70;99.90;;;;;;4968376;28;20012;-77
2023/11/07 13:57:04;;;;;;;0.95;0.50;;;13.20;99.90;;;;;;4952388;28;20015;-78
2023/11/07 13:59:31;;;;;;;0.60;0.30;;;12.90;99.90;;;;;;4953095;28;20054;-77
2023/11/07 14:02:06;;;;;;;2.20;0.37;;;12.70;99.90;;;;;;4969067;28;20020;-77
2023/11/07 14:04:34;;;;;;;2.70;0.40;;;12.60;99.90;;;;;;4952998;28;20016;-78
2023/11/07 14:07:04;;;;;;;0.73;0.33;;;12.40;99.90;;;;;;4970010;28;20047;-78
2023/11/07 14:09:33;;;;;;;1.60;0.43;;;12.30;99.90;;;;;;4970196;28;20028;-77
2023/11/07 14:12:02;;;;;;;1.83;0.47;;;12.30;99.90;;;;;;4954972;28;20015;-77